sensor_id;sensor_type;location;lat;lon;timestamp;P1;durP1;ratioP1;P2;durP2;ratioP2
18188;SDS011;9219;50.396;8.546;2023-06-14T00:17:14;4.87;;;3.50;;
18188;SDS011;9219;50.396;8.546;2023-06-14T00:19:45;3.73;;;2.97;;
18188;SDS011;9219;50.396;8.546;2023-06-14T00:22:14;7.83;;;4.20;;
18188;SDS011;9219;50.396;8.546;2023-06-14T00:24:43;4.43;;;3.03;;
18188;SDS011;9219;50.396;8.546;2023-06-14T00:27:11;4.50;;;3.60;;
18188;SDS011;9219;50.396;8.546;2023-06-14T00:29:41;4.47;;;3.67;;
18188;SDS011;9219;50.396;8.546;2023-06-14T00:32:09;3.77;;;3.13;;
18188;SDS011;9219;50.396;8.546;2023-06-14T00:34:40;10.70;;;3.77;;
18188;SDS011;9219;50.396;8.546;2023-06-14T00:37:11;5.63;;;3.33;;
18188;SDS011;9219;50.396;8.546;2023-06-14T00:44:48;4.20;;;2.93;;
18188;SDS011;9219;50.396;8.546;2023-06-14T00:47:17;3.27;;;2.90;;
18188;SDS011;9219;50.396;8.546;2023-06-14T00:49:46;6.63;;;3.03;;
18188;SDS011;9219;50.396;8.546;2023-06-14T00:52:16;4.03;;;3.03;;
18188;SDS011;9219;50.396;8.546;2023-06-14T00:54:46;4.93;;;3.50;;
18188;SDS011;9219;50.396;8.546;2023-06-14T00:57:16;8.30;;;4.03;;
18188;SDS011;9219;50.396;8.546;2023-06-14T00:59:46;5.27;;;3.47;;
18188;SDS011;9219;50.396;8.546;2023-06-14T01:06:49;4.20;;;3.00;;
18188;SDS011;9219;50.396;8.546;2023-06-14T01:09:31;6.77;;;3.93;;
18188;SDS011;9219;50.396;8.546;2023-06-14T01:12:07;6.17;;;3.83;;
18188;SDS011;9219;50.396;8.546;2023-06-14T01:14:39;4.97;;;4.00;;
18188;SDS011;9219;50.396;8.546;2023-06-14T01:17:10;5.50;;;3.67;;
18188;SDS011;9219;50.396;8.546;2023-06-14T01:19:43;5.30;;;3.70;;
18188;SDS011;9219;50.396;8.546;2023-06-14T01:22:13;5.40;;;3.40;;
18188;SDS011;9219;50.396;8.546;2023-06-14T01:24:58;5.40;;;3.83;;
18188;SDS011;9219;50.396;8.546;2023-06-14T01:27:27;5.60;;;3.73;;
18188;SDS011;9219;50.396;8.546;2023-06-14T01:29:57;6.77;;;3.90;;
18188;SDS011;9219;50.396;8.546;2023-06-14T01:32:28;7.13;;;3.40;;
18188;SDS011;9219;50.396;8.546;2023-06-14T01:34:58;11.10;;;3.90;;
18188;SDS011;9219;50.396;8.546;2023-06-14T01:37:28;5.03;;;3.47;;
18188;SDS011;9219;50.396;8.546;2023-06-14T01:39:58;5.83;;;3.30;;
18188;SDS011;9219;50.396;8.546;2023-06-14T01:49:38;13.50;;;3.93;;
18188;SDS011;9219;50.396;8.546;2023-06-14T01:52:07;6.77;;;3.17;;
18188;SDS011;9219;50.396;8.546;2023-06-14T01:54:36;4.13;;;2.93;;
18188;SDS011;9219;50.396;8.546;2023-06-14T01:57:09;3.67;;;3.17;;
18188;SDS011;9219;50.396;8.546;2023-06-14T01:59:37;3.90;;;3.27;;
18188;SDS011;9219;50.396;8.546;2023-06-14T02:02:06;7.40;;;4.27;;
18188;SDS011;9219;50.396;8.546;2023-06-14T02:04:36;3.77;;;3.17;;
18188;SDS011;9219;50.396;8.546;2023-06-14T02:07:05;4.90;;;3.53;;
18188;SDS011;9219;50.396;8.546;2023-06-14T02:09:35;4.80;;;3.37;;
18188;SDS011;9219;50.396;8.546;2023-06-14T02:16:31;5.57;;;3.40;;
18188;SDS011;9219;50.396;8.546;2023-06-14T02:19:02;4.40;;;3.20;;
18188;SDS011;9219;50.396;8.546;2023-06-14T02:21:33;6.63;;;3.73;;
18188;SDS011;9219;50.396;8.546;2023-06-14T02:24:02;4.37;;;3.80;;
18188;SDS011;9219;50.396;8.546;2023-06-14T02:26:33;6.83;;;3.40;;
18188;SDS011;9219;50.396;8.546;2023-06-14T02:29:05;10.17;;;4.10;;
18188;SDS011;9219;50.396;8.546;2023-06-14T02:31:37;5.33;;;4.30;;
18188;SDS011;9219;50.396;8.546;2023-06-14T02:39:13;6.33;;;3.83;;
18188;SDS011;9219;50.396;8.546;2023-06-14T02:41:43;5.83;;;3.30;;
18188;SDS011;9219;50.396;8.546;2023-06-14T02:44:12;5.97;;;4.00;;
18188;SDS011;9219;50.396;8.546;2023-06-14T02:46:42;8.77;;;3.90;;
18188;SDS011;9219;50.396;8.546;2023-06-14T02:49:11;4.83;;;4.00;;
18188;SDS011;9219;50.396;8.546;2023-06-14T02:51:40;4.47;;;3.57;;
18188;SDS011;9219;50.396;8.546;2023-06-14T02:54:09;6.77;;;3.60;;
18188;SDS011;9219;50.396;8.546;2023-06-14T02:59:23;5.53;;;3.40;;
18188;SDS011;9219;50.396;8.546;2023-06-14T03:01:53;6.43;;;3.97;;
18188;SDS011;9219;50.396;8.546;2023-06-14T03:04:26;4.93;;;3.30;;
18188;SDS011;9219;50.396;8.546;2023-06-14T03:06:56;4.80;;;3.53;;
18188;SDS011;9219;50.396;8.546;2023-06-14T03:09:25;5.80;;;3.37;;
18188;SDS011;9219;50.396;8.546;2023-06-14T03:11:54;10.00;;;3.93;;
18188;SDS011;9219;50.396;8.546;2023-06-14T03:14:24;5.20;;;3.80;;
18188;SDS011;9219;50.396;8.546;2023-06-14T03:21:22;6.87;;;3.40;;
18188;SDS011;9219;50.396;8.546;2023-06-14T03:23:51;4.17;;;3.60;;
18188;SDS011;9219;50.396;8.546;2023-06-14T03:26:22;4.97;;;3.57;;
18188;SDS011;9219;50.396;8.546;2023-06-14T03:28:51;4.90;;;3.70;;
18188;SDS011;9219;50.396;8.546;2023-06-14T03:31:20;5.00;;;3.30;;
18188;SDS011;9219;50.396;8.546;2023-06-14T03:33:51;7.50;;;4.10;;
18188;SDS011;9219;50.396;8.546;2023-06-14T03:36:22;8.23;;;4.00;;
18188;SDS011;9219;50.396;8.546;2023-06-14T03:57:04;5.70;;;4.13;;
18188;SDS011;9219;50.396;8.546;2023-06-14T03:59:33;6.37;;;3.60;;
18188;SDS011;9219;50.396;8.546;2023-06-14T04:02:03;5.53;;;3.87;;
18188;SDS011;9219;50.396;8.546;2023-06-14T04:04:33;9.23;;;3.93;;
18188;SDS011;9219;50.396;8.546;2023-06-14T04:07:01;6.23;;;3.53;;
18188;SDS011;9219;50.396;8.546;2023-06-14T04:09:31;6.73;;;3.60;;
18188;SDS011;9219;50.396;8.546;2023-06-14T04:12:00;4.93;;;3.80;;
18188;SDS011;9219;50.396;8.546;2023-06-14T04:14:29;5.63;;;3.17;;
18188;SDS011;9219;50.396;8.546;2023-06-14T04:17:10;4.93;;;3.43;;
18188;SDS011;9219;50.396;8.546;2023-06-14T04:27:42;7.87;;;3.83;;
18188;SDS011;9219;50.396;8.546;2023-06-14T04:30:16;4.67;;;3.17;;
18188;SDS011;9219;50.396;8.546;2023-06-14T04:32:53;6.77;;;3.90;;
18188;SDS011;9219;50.396;8.546;2023-06-14T04:35:23;6.37;;;3.73;;
18188;SDS011;9219;50.396;8.546;2023-06-14T04:37:59;7.97;;;4.17;;
18188;SDS011;9219;50.396;8.546;2023-06-14T04:40:35;4.80;;;3.40;;
18188;SDS011;9219;50.396;8.546;2023-06-14T04:57:09;5.10;;;3.70;;
18188;SDS011;9219;50.396;8.546;2023-06-14T04:59:40;8.43;;;4.20;;
18188;SDS011;9219;50.396;8.546;2023-06-14T05:02:08;9.27;;;3.53;;
18188;SDS011;9219;50.396;8.546;2023-06-14T05:04:39;9.50;;;4.13;;
18188;SDS011;9219;50.396;8.546;2023-06-14T05:07:07;7.73;;;4.50;;
18188;SDS011;9219;50.396;8.546;2023-06-14T05:09:36;5.77;;;3.90;;
18188;SDS011;9219;50.396;8.546;2023-06-14T05:12:06;10.77;;;4.07;;
18188;SDS011;9219;50.396;8.546;2023-06-14T05:14:36;6.23;;;3.40;;
18188;SDS011;9219;50.396;8.546;2023-06-14T05:21:44;9.17;;;3.80;;
18188;SDS011;9219;50.396;8.546;2023-06-14T05:24:13;6.93;;;3.60;;
18188;SDS011;9219;50.396;8.546;2023-06-14T05:26:43;7.90;;;3.90;;
18188;SDS011;9219;50.396;8.546;2023-06-14T05:29:12;4.27;;;3.70;;
18188;SDS011;9219;50.396;8.546;2023-06-14T05:31:40;7.70;;;4.13;;
18188;SDS011;9219;50.396;8.546;2023-06-14T05:34:09;12.63;;;3.53;;
18188;SDS011;9219;50.396;8.546;2023-06-14T05:36:37;5.63;;;3.60;;
18188;SDS011;9219;50.396;8.546;2023-06-14T05:39:06;4.07;;;3.33;;
18188;SDS011;9219;50.396;8.546;2023-06-14T05:41:35;7.63;;;3.80;;
18188;SDS011;9219;50.396;8.546;2023-06-14T05:47:57;10.73;;;3.57;;
18188;SDS011;9219;50.396;8.546;2023-06-14T05:50:26;6.97;;;3.80;;
18188;SDS011;9219;50.396;8.546;2023-06-14T05:52:56;6.07;;;3.20;;
18188;SDS011;9219;50.396;8.546;2023-06-14T05:55:26;4.93;;;3.43;;
18188;SDS011;9219;50.396;8.546;2023-06-14T05:57:54;4.97;;;3.00;;
18188;SDS011;9219;50.396;8.546;2023-06-14T06:00:24;3.83;;;3.20;;
18188;SDS011;9219;50.396;8.546;2023-06-14T06:02:54;6.93;;;3.10;;
18188;SDS011;9219;50.396;8.546;2023-06-14T06:05:25;7.77;;;4.07;;
18188;SDS011;9219;50.396;8.546;2023-06-14T06:10:39;3.23;;;2.60;;
18188;SDS011;9219;50.396;8.546;2023-06-14T06:13:09;4.90;;;3.10;;
18188;SDS011;9219;50.396;8.546;2023-06-14T06:15:38;6.57;;;3.20;;
18188;SDS011;9219;50.396;8.546;2023-06-14T06:18:07;4.90;;;3.47;;
18188;SDS011;9219;50.396;8.546;2023-06-14T06:20:36;5.43;;;3.13;;
18188;SDS011;9219;50.396;8.546;2023-06-14T06:23:03;10.40;;;3.40;;
18188;SDS011;9219;50.396;8.546;2023-06-14T06:25:33;4.83;;;3.57;;
18188;SDS011;9219;50.396;8.546;2023-06-14T06:30:45;7.10;;;3.33;;
18188;SDS011;9219;50.396;8.546;2023-06-14T06:33:14;6.53;;;3.00;;
18188;SDS011;9219;50.396;8.546;2023-06-14T06:35:42;10.80;;;3.27;;
18188;SDS011;9219;50.396;8.546;2023-06-14T06:38:11;4.00;;;2.40;;
18188;SDS011;9219;50.396;8.546;2023-06-14T06:40:40;4.73;;;2.83;;
18188;SDS011;9219;50.396;8.546;2023-06-14T06:43:09;7.83;;;3.20;;
18188;SDS011;9219;50.396;8.546;2023-06-14T06:45:39;4.17;;;3.23;;
18188;SDS011;9219;50.396;8.546;2023-06-14T06:52:42;9.80;;;3.33;;
18188;SDS011;9219;50.396;8.546;2023-06-14T06:55:11;4.20;;;3.00;;
18188;SDS011;9219;50.396;8.546;2023-06-14T06:57:45;5.00;;;3.20;;
18188;SDS011;9219;50.396;8.546;2023-06-14T07:00:15;7.03;;;2.20;;
18188;SDS011;9219;50.396;8.546;2023-06-14T07:02:47;6.27;;;3.03;;
18188;SDS011;9219;50.396;8.546;2023-06-14T07:05:16;3.03;;;2.60;;
18188;SDS011;9219;50.396;8.546;2023-06-14T07:07:46;5.73;;;2.57;;
18188;SDS011;9219;50.396;8.546;2023-06-14T07:18:03;5.20;;;2.30;;
18188;SDS011;9219;50.396;8.546;2023-06-14T07:20:33;2.90;;;2.57;;
18188;SDS011;9219;50.396;8.546;2023-06-14T07:23:04;3.73;;;2.40;;
18188;SDS011;9219;50.396;8.546;2023-06-14T07:25:32;2.50;;;2.03;;
18188;SDS011;9219;50.396;8.546;2023-06-14T07:28:02;7.17;;;2.60;;
18188;SDS011;9219;50.396;8.546;2023-06-14T07:33:10;8.77;;;2.67;;
18188;SDS011;9219;50.396;8.546;2023-06-14T07:35:41;5.00;;;2.70;;
18188;SDS011;9219;50.396;8.546;2023-06-14T07:38:11;3.70;;;2.47;;
18188;SDS011;9219;50.396;8.546;2023-06-14T07:40:40;4.47;;;2.73;;
18188;SDS011;9219;50.396;8.546;2023-06-14T07:43:08;4.37;;;2.07;;
18188;SDS011;9219;50.396;8.546;2023-06-14T07:45:36;4.40;;;2.17;;
18188;SDS011;9219;50.396;8.546;2023-06-14T07:48:12;2.80;;;2.23;;
18188;SDS011;9219;50.396;8.546;2023-06-14T07:55:48;16.33;;;2.47;;
18188;SDS011;9219;50.396;8.546;2023-06-14T07:58:19;2.33;;;1.93;;
18188;SDS011;9219;50.396;8.546;2023-06-14T08:00:49;2.37;;;1.93;;
18188;SDS011;9219;50.396;8.546;2023-06-14T08:03:18;3.33;;;1.80;;
18188;SDS011;9219;50.396;8.546;2023-06-14T08:05:46;4.40;;;2.00;;
18188;SDS011;9219;50.396;8.546;2023-06-14T08:08:14;4.00;;;2.00;;
18188;SDS011;9219;50.396;8.546;2023-06-14T08:10:43;2.37;;;1.60;;
18188;SDS011;9219;50.396;8.546;2023-06-14T08:15:52;2.70;;;2.10;;
18188;SDS011;9219;50.396;8.546;2023-06-14T08:18:22;7.23;;;2.80;;
18188;SDS011;9219;50.396;8.546;2023-06-14T08:20:51;6.00;;;2.27;;
18188;SDS011;9219;50.396;8.546;2023-06-14T08:23:20;6.83;;;2.67;;
18188;SDS011;9219;50.396;8.546;2023-06-14T08:25:48;7.07;;;2.83;;
18188;SDS011;9219;50.396;8.546;2023-06-14T08:28:17;6.53;;;2.40;;
18188;SDS011;9219;50.396;8.546;2023-06-14T08:30:47;4.50;;;2.20;;
18188;SDS011;9219;50.396;8.546;2023-06-14T08:37:05;2.17;;;1.90;;
18188;SDS011;9219;50.396;8.546;2023-06-14T08:39:34;4.97;;;2.03;;
18188;SDS011;9219;50.396;8.546;2023-06-14T08:42:02;2.70;;;2.17;;
18188;SDS011;9219;50.396;8.546;2023-06-14T08:44:40;6.23;;;2.37;;
18188;SDS011;9219;50.396;8.546;2023-06-14T08:47:09;5.07;;;1.90;;
18188;SDS011;9219;50.396;8.546;2023-06-14T08:49:38;5.53;;;1.90;;
18188;SDS011;9219;50.396;8.546;2023-06-14T08:52:13;2.00;;;1.80;;
18188;SDS011;9219;50.396;8.546;2023-06-14T08:54:55;2.67;;;2.00;;
18188;SDS011;9219;50.396;8.546;2023-06-14T08:57:26;2.23;;;1.90;;
18188;SDS011;9219;50.396;8.546;2023-06-14T08:59:57;2.67;;;1.90;;
18188;SDS011;9219;50.396;8.546;2023-06-14T09:02:28;4.07;;;1.93;;
18188;SDS011;9219;50.396;8.546;2023-06-14T09:04:56;4.53;;;1.77;;
18188;SDS011;9219;50.396;8.546;2023-06-14T09:07:26;3.40;;;1.80;;
18188;SDS011;9219;50.396;8.546;2023-06-14T09:10:06;4.27;;;1.93;;
18188;SDS011;9219;50.396;8.546;2023-06-14T09:15:18;3.97;;;1.50;;
18188;SDS011;9219;50.396;8.546;2023-06-14T09:17:47;2.20;;;1.63;;
18188;SDS011;9219;50.396;8.546;2023-06-14T09:20:18;2.10;;;1.63;;
18188;SDS011;9219;50.396;8.546;2023-06-14T09:22:47;2.97;;;1.80;;
18188;SDS011;9219;50.396;8.546;2023-06-14T09:25:15;6.10;;;2.10;;
18188;SDS011;9219;50.396;8.546;2023-06-14T09:28:06;2.47;;;1.63;;
18188;SDS011;9219;50.396;8.546;2023-06-14T09:30:37;1.93;;;1.70;;
18188;SDS011;9219;50.396;8.546;2023-06-14T09:33:32;4.53;;;1.93;;
18188;SDS011;9219;50.396;8.546;2023-06-14T09:36:01;1.93;;;1.83;;
18188;SDS011;9219;50.396;8.546;2023-06-14T09:38:30;2.60;;;1.97;;
18188;SDS011;9219;50.396;8.546;2023-06-14T09:41:01;2.30;;;2.10;;
18188;SDS011;9219;50.396;8.546;2023-06-14T09:43:38;2.30;;;1.80;;
18188;SDS011;9219;50.396;8.546;2023-06-14T09:46:07;5.30;;;2.57;;
18188;SDS011;9219;50.396;8.546;2023-06-14T09:48:39;2.00;;;1.63;;
18188;SDS011;9219;50.396;8.546;2023-06-14T09:55:28;2.90;;;1.97;;
18188;SDS011;9219;50.396;8.546;2023-06-14T09:58:01;8.63;;;2.40;;
18188;SDS011;9219;50.396;8.546;2023-06-14T10:00:35;4.47;;;2.83;;
18188;SDS011;9219;50.396;8.546;2023-06-14T10:03:11;4.43;;;2.00;;
18188;SDS011;9219;50.396;8.546;2023-06-14T10:05:44;2.07;;;1.87;;
18188;SDS011;9219;50.396;8.546;2023-06-14T10:08:25;3.87;;;2.27;;
18188;SDS011;9219;50.396;8.546;2023-06-14T10:13:42;2.03;;;1.83;;
18188;SDS011;9219;50.396;8.546;2023-06-14T10:16:12;2.20;;;2.00;;
18188;SDS011;9219;50.396;8.546;2023-06-14T10:18:48;3.20;;;1.87;;
18188;SDS011;9219;50.396;8.546;2023-06-14T10:21:22;3.23;;;2.47;;
18188;SDS011;9219;50.396;8.546;2023-06-14T10:23:55;2.80;;;1.90;;
18188;SDS011;9219;50.396;8.546;2023-06-14T10:26:29;2.63;;;2.13;;
18188;SDS011;9219;50.396;8.546;2023-06-14T10:28:59;2.40;;;2.03;;
18188;SDS011;9219;50.396;8.546;2023-06-14T10:31:41;2.60;;;1.97;;
18188;SDS011;9219;50.396;8.546;2023-06-14T10:38:43;3.30;;;1.97;;
18188;SDS011;9219;50.396;8.546;2023-06-14T10:41:14;2.47;;;2.27;;
18188;SDS011;9219;50.396;8.546;2023-06-14T10:43:45;3.87;;;2.10;;
18188;SDS011;9219;50.396;8.546;2023-06-14T10:46:16;2.13;;;1.90;;
18188;SDS011;9219;50.396;8.546;2023-06-14T10:48:48;2.30;;;1.83;;
18188;SDS011;9219;50.396;8.546;2023-06-14T10:51:29;2.63;;;2.13;;
18188;SDS011;9219;50.396;8.546;2023-06-14T10:59:13;2.30;;;1.80;;
18188;SDS011;9219;50.396;8.546;2023-06-14T11:01:45;1.50;;;1.40;;
18188;SDS011;9219;50.396;8.546;2023-06-14T11:04:23;4.17;;;1.60;;
18188;SDS011;9219;50.396;8.546;2023-06-14T11:07:04;2.90;;;2.00;;
18188;SDS011;9219;50.396;8.546;2023-06-14T11:09:55;2.47;;;2.13;;
18188;SDS011;9219;50.396;8.546;2023-06-14T11:12:38;2.73;;;2.30;;
18188;SDS011;9219;50.396;8.546;2023-06-14T11:17:50;3.30;;;2.30;;
18188;SDS011;9219;50.396;8.546;2023-06-14T11:20:24;2.70;;;2.30;;
18188;SDS011;9219;50.396;8.546;2023-06-14T11:22:54;2.20;;;1.97;;
18188;SDS011;9219;50.396;8.546;2023-06-14T11:25:23;4.73;;;2.10;;
18188;SDS011;9219;50.396;8.546;2023-06-14T11:27:52;3.23;;;2.13;;
18188;SDS011;9219;50.396;8.546;2023-06-14T11:30:22;2.27;;;1.90;;
18188;SDS011;9219;50.396;8.546;2023-06-14T11:35:48;5.17;;;2.30;;
18188;SDS011;9219;50.396;8.546;2023-06-14T11:38:17;6.63;;;2.40;;
18188;SDS011;9219;50.396;8.546;2023-06-14T11:40:46;4.00;;;1.93;;
18188;SDS011;9219;50.396;8.546;2023-06-14T11:43:15;2.10;;;1.90;;
18188;SDS011;9219;50.396;8.546;2023-06-14T11:45:47;4.03;;;1.70;;
18188;SDS011;9219;50.396;8.546;2023-06-14T11:48:37;3.47;;;1.60;;
18188;SDS011;9219;50.396;8.546;2023-06-14T11:51:07;1.77;;;1.63;;
18188;SDS011;9219;50.396;8.546;2023-06-14T11:54:01;4.00;;;1.63;;
18188;SDS011;9219;50.396;8.546;2023-06-14T11:56:30;3.27;;;1.83;;
18188;SDS011;9219;50.396;8.546;2023-06-14T11:58:59;2.47;;;1.83;;
18188;SDS011;9219;50.396;8.546;2023-06-14T12:01:35;3.30;;;1.87;;
18188;SDS011;9219;50.396;8.546;2023-06-14T12:04:08;3.70;;;2.37;;
18188;SDS011;9219;50.396;8.546;2023-06-14T12:06:38;3.60;;;2.17;;
18188;SDS011;9219;50.396;8.546;2023-06-14T12:09:11;7.27;;;2.70;;
18188;SDS011;9219;50.396;8.546;2023-06-14T12:16:20;4.00;;;1.67;;
18188;SDS011;9219;50.396;8.546;2023-06-14T12:19:00;6.53;;;2.20;;
18188;SDS011;9219;50.396;8.546;2023-06-14T12:21:37;4.00;;;2.10;;
18188;SDS011;9219;50.396;8.546;2023-06-14T12:24:16;2.40;;;2.20;;
18188;SDS011;9219;50.396;8.546;2023-06-14T12:26:47;4.33;;;2.40;;
18188;SDS011;9219;50.396;8.546;2023-06-14T12:29:31;2.60;;;2.00;;
18188;SDS011;9219;50.396;8.546;2023-06-14T12:32:01;4.53;;;2.10;;
18188;SDS011;9219;50.396;8.546;2023-06-14T12:38:59;3.33;;;2.10;;
18188;SDS011;9219;50.396;8.546;2023-06-14T12:41:28;2.43;;;1.67;;
18188;SDS011;9219;50.396;8.546;2023-06-14T12:43:57;2.23;;;2.03;;
18188;SDS011;9219;50.396;8.546;2023-06-14T12:46:32;3.10;;;1.97;;
18188;SDS011;9219;50.396;8.546;2023-06-14T12:49:01;1.77;;;1.67;;
18188;SDS011;9219;50.396;8.546;2023-06-14T12:51:36;3.10;;;1.90;;
18188;SDS011;9219;50.396;8.546;2023-06-14T12:54:07;5.10;;;2.40;;
18188;SDS011;9219;50.396;8.546;2023-06-14T13:02:10;5.60;;;1.90;;
18188;SDS011;9219;50.396;8.546;2023-06-14T13:04:40;2.23;;;1.80;;
18188;SDS011;9219;50.396;8.546;2023-06-14T13:07:09;1.80;;;1.50;;
18188;SDS011;9219;50.396;8.546;2023-06-14T13:09:39;1.70;;;1.60;;
18188;SDS011;9219;50.396;8.546;2023-06-14T13:12:09;1.80;;;1.70;;
18188;SDS011;9219;50.396;8.546;2023-06-14T13:14:39;2.40;;;2.20;;
18188;SDS011;9219;50.396;8.546;2023-06-14T13:17:08;3.10;;;2.80;;
18188;SDS011;9219;50.396;8.546;2023-06-14T13:19:37;2.73;;;2.20;;
18188;SDS011;9219;50.396;8.546;2023-06-14T13:24:46;4.20;;;1.90;;
18188;SDS011;9219;50.396;8.546;2023-06-14T13:27:14;2.00;;;1.80;;
18188;SDS011;9219;50.396;8.546;2023-06-14T13:29:43;2.20;;;2.00;;
18188;SDS011;9219;50.396;8.546;2023-06-14T13:32:12;4.07;;;1.70;;
18188;SDS011;9219;50.396;8.546;2023-06-14T13:34:41;3.00;;;2.40;;
18188;SDS011;9219;50.396;8.546;2023-06-14T13:37:15;4.13;;;2.10;;
18188;SDS011;9219;50.396;8.546;2023-06-14T13:39:46;2.23;;;2.03;;
18188;SDS011;9219;50.396;8.546;2023-06-14T13:42:14;3.13;;;2.30;;
18188;SDS011;9219;50.396;8.546;2023-06-14T13:49:00;3.57;;;1.70;;
18188;SDS011;9219;50.396;8.546;2023-06-14T13:51:28;3.97;;;2.00;;
18188;SDS011;9219;50.396;8.546;2023-06-14T13:53:57;3.80;;;2.07;;
18188;SDS011;9219;50.396;8.546;2023-06-14T13:56:25;2.53;;;2.20;;
18188;SDS011;9219;50.396;8.546;2023-06-14T13:58:53;2.87;;;2.53;;
18188;SDS011;9219;50.396;8.546;2023-06-14T14:01:22;2.53;;;1.80;;
18188;SDS011;9219;50.396;8.546;2023-06-14T14:03:52;11.87;;;2.17;;
18188;SDS011;9219;50.396;8.546;2023-06-14T14:10:41;4.33;;;1.97;;
18188;SDS011;9219;50.396;8.546;2023-06-14T14:13:11;2.27;;;2.07;;
18188;SDS011;9219;50.396;8.546;2023-06-14T14:15:47;2.70;;;2.17;;
18188;SDS011;9219;50.396;8.546;2023-06-14T14:18:17;4.80;;;2.30;;
18188;SDS011;9219;50.396;8.546;2023-06-14T14:20:48;4.73;;;2.50;;
18188;SDS011;9219;50.396;8.546;2023-06-14T14:23:17;2.30;;;2.10;;
18188;SDS011;9219;50.396;8.546;2023-06-14T14:25:50;3.70;;;1.90;;
18188;SDS011;9219;50.396;8.546;2023-06-14T14:31:06;2.17;;;1.87;;
18188;SDS011;9219;50.396;8.546;2023-06-14T14:33:35;4.70;;;2.00;;
18188;SDS011;9219;50.396;8.546;2023-06-14T14:36:04;2.13;;;1.93;;
18188;SDS011;9219;50.396;8.546;2023-06-14T14:38:33;3.43;;;2.50;;
18188;SDS011;9219;50.396;8.546;2023-06-14T14:41:02;3.73;;;2.27;;
18188;SDS011;9219;50.396;8.546;2023-06-14T14:43:30;2.77;;;2.33;;
18188;SDS011;9219;50.396;8.546;2023-06-14T14:48:39;7.67;;;2.13;;
18188;SDS011;9219;50.396;8.546;2023-06-14T14:51:07;2.07;;;1.80;;
18188;SDS011;9219;50.396;8.546;2023-06-14T14:53:37;2.63;;;2.10;;
18188;SDS011;9219;50.396;8.546;2023-06-14T14:56:06;3.50;;;2.57;;
18188;SDS011;9219;50.396;8.546;2023-06-14T14:58:34;2.53;;;1.90;;
18188;SDS011;9219;50.396;8.546;2023-06-14T15:01:02;2.47;;;2.20;;
18188;SDS011;9219;50.396;8.546;2023-06-14T15:03:32;6.37;;;2.10;;
18188;SDS011;9219;50.396;8.546;2023-06-14T15:09:01;3.20;;;2.33;;
18188;SDS011;9219;50.396;8.546;2023-06-14T15:11:30;3.27;;;2.40;;
18188;SDS011;9219;50.396;8.546;2023-06-14T15:13:59;2.80;;;2.03;;
18188;SDS011;9219;50.396;8.546;2023-06-14T15:16:29;2.33;;;1.97;;
18188;SDS011;9219;50.396;8.546;2023-06-14T15:18:59;2.57;;;2.30;;
18188;SDS011;9219;50.396;8.546;2023-06-14T15:21:28;3.23;;;2.10;;
18188;SDS011;9219;50.396;8.546;2023-06-14T15:23:58;4.10;;;2.43;;
18188;SDS011;9219;50.396;8.546;2023-06-14T15:30:47;3.73;;;2.13;;
18188;SDS011;9219;50.396;8.546;2023-06-14T15:33:15;2.53;;;2.10;;
18188;SDS011;9219;50.396;8.546;2023-06-14T15:35:44;3.43;;;2.73;;
18188;SDS011;9219;50.396;8.546;2023-06-14T15:38:13;2.67;;;2.47;;
18188;SDS011;9219;50.396;8.546;2023-06-14T15:40:42;2.50;;;2.23;;
18188;SDS011;9219;50.396;8.546;2023-06-14T15:43:12;2.17;;;1.97;;
18188;SDS011;9219;50.396;8.546;2023-06-14T15:45:40;8.87;;;2.13;;
18188;SDS011;9219;50.396;8.546;2023-06-14T15:52:45;5.97;;;2.60;;
18188;SDS011;9219;50.396;8.546;2023-06-14T15:55:16;2.20;;;1.97;;
18188;SDS011;9219;50.396;8.546;2023-06-14T15:57:44;3.63;;;2.20;;
18188;SDS011;9219;50.396;8.546;2023-06-14T16:00:14;2.80;;;2.20;;
18188;SDS011;9219;50.396;8.546;2023-06-14T16:02:44;4.00;;;2.37;;
18188;SDS011;9219;50.396;8.546;2023-06-14T16:05:13;4.40;;;2.53;;
18188;SDS011;9219;50.396;8.546;2023-06-14T16:07:41;2.53;;;2.30;;
18188;SDS011;9219;50.396;8.546;2023-06-14T16:15:13;2.50;;;2.30;;
18188;SDS011;9219;50.396;8.546;2023-06-14T16:17:43;2.63;;;2.30;;
18188;SDS011;9219;50.396;8.546;2023-06-14T16:20:11;2.47;;;1.93;;
18188;SDS011;9219;50.396;8.546;2023-06-14T16:22:41;2.30;;;2.03;;
18188;SDS011;9219;50.396;8.546;2023-06-14T16:25:11;5.20;;;2.50;;
18188;SDS011;9219;50.396;8.546;2023-06-14T16:27:40;5.17;;;2.60;;
18188;SDS011;9219;50.396;8.546;2023-06-14T16:30:08;2.73;;;2.00;;
18188;SDS011;9219;50.396;8.546;2023-06-14T16:32:38;3.00;;;2.30;;
18188;SDS011;9219;50.396;8.546;2023-06-14T16:37:47;2.73;;;2.17;;
18188;SDS011;9219;50.396;8.546;2023-06-14T16:40:16;4.73;;;2.13;;
18188;SDS011;9219;50.396;8.546;2023-06-14T16:42:44;2.10;;;1.90;;
18188;SDS011;9219;50.396;8.546;2023-06-14T16:45:13;5.27;;;2.60;;
18188;SDS011;9219;50.396;8.546;2023-06-14T16:47:42;4.33;;;2.80;;
18188;SDS011;9219;50.396;8.546;2023-06-14T16:50:11;4.57;;;2.87;;
18188;SDS011;9219;50.396;8.546;2023-06-14T16:52:41;2.87;;;2.43;;
18188;SDS011;9219;50.396;8.546;2023-06-14T16:59:30;2.97;;;2.63;;
18188;SDS011;9219;50.396;8.546;2023-06-14T17:02:00;4.50;;;2.27;;
18188;SDS011;9219;50.396;8.546;2023-06-14T17:04:33;7.13;;;2.53;;
18188;SDS011;9219;50.396;8.546;2023-06-14T17:07:01;3.53;;;2.63;;
18188;SDS011;9219;50.396;8.546;2023-06-14T17:09:30;4.63;;;2.50;;
18188;SDS011;9219;50.396;8.546;2023-06-14T17:11:59;5.23;;;2.50;;
18188;SDS011;9219;50.396;8.546;2023-06-14T17:14:28;5.70;;;2.23;;
18188;SDS011;9219;50.396;8.546;2023-06-14T17:21:44;4.80;;;2.50;;
18188;SDS011;9219;50.396;8.546;2023-06-14T17:24:18;2.20;;;2.00;;
18188;SDS011;9219;50.396;8.546;2023-06-14T17:26:52;5.47;;;2.77;;
18188;SDS011;9219;50.396;8.546;2023-06-14T17:29:23;3.07;;;2.70;;
18188;SDS011;9219;50.396;8.546;2023-06-14T17:31:52;5.27;;;2.67;;
18188;SDS011;9219;50.396;8.546;2023-06-14T17:34:21;3.90;;;2.10;;
18188;SDS011;9219;50.396;8.546;2023-06-14T17:36:56;3.00;;;2.27;;
18188;SDS011;9219;50.396;8.546;2023-06-14T17:39:39;2.97;;;2.20;;
18188;SDS011;9219;50.396;8.546;2023-06-14T17:42:08;3.00;;;2.17;;
18188;SDS011;9219;50.396;8.546;2023-06-14T17:44:38;3.57;;;2.23;;
18188;SDS011;9219;50.396;8.546;2023-06-14T17:47:06;2.37;;;1.90;;
18188;SDS011;9219;50.396;8.546;2023-06-14T17:49:44;3.87;;;2.20;;
18188;SDS011;9219;50.396;8.546;2023-06-14T17:52:20;4.10;;;2.50;;
18188;SDS011;9219;50.396;8.546;2023-06-14T17:54:50;2.87;;;2.40;;
18188;SDS011;9219;50.396;8.546;2023-06-14T18:01:51;3.10;;;2.23;;
18188;SDS011;9219;50.396;8.546;2023-06-14T18:04:21;2.33;;;2.13;;
18188;SDS011;9219;50.396;8.546;2023-06-14T18:06:49;3.60;;;2.33;;
18188;SDS011;9219;50.396;8.546;2023-06-14T18:09:18;2.90;;;2.20;;
18188;SDS011;9219;50.396;8.546;2023-06-14T18:11:46;4.43;;;2.47;;
18188;SDS011;9219;50.396;8.546;2023-06-14T18:14:17;3.43;;;2.57;;
18188;SDS011;9219;50.396;8.546;2023-06-14T18:16:46;3.03;;;2.00;;
18188;SDS011;9219;50.396;8.546;2023-06-14T18:21:57;2.80;;;2.20;;
18188;SDS011;9219;50.396;8.546;2023-06-14T18:24:26;2.00;;;1.77;;
18188;SDS011;9219;50.396;8.546;2023-06-14T18:26:54;2.37;;;2.17;;
18188;SDS011;9219;50.396;8.546;2023-06-14T18:29:23;3.23;;;2.40;;
18188;SDS011;9219;50.396;8.546;2023-06-14T18:31:51;2.67;;;2.23;;
18188;SDS011;9219;50.396;8.546;2023-06-14T18:34:19;2.40;;;2.20;;
18188;SDS011;9219;50.396;8.546;2023-06-14T18:36:49;5.17;;;2.57;;
18188;SDS011;9219;50.396;8.546;2023-06-14T18:43:25;2.37;;;2.17;;
18188;SDS011;9219;50.396;8.546;2023-06-14T18:45:54;3.07;;;2.77;;
18188;SDS011;9219;50.396;8.546;2023-06-14T18:48:22;2.60;;;2.30;;
18188;SDS011;9219;50.396;8.546;2023-06-14T18:50:50;2.13;;;2.00;;
18188;SDS011;9219;50.396;8.546;2023-06-14T18:53:18;2.53;;;2.33;;
18188;SDS011;9219;50.396;8.546;2023-06-14T18:55:48;4.93;;;2.47;;
18188;SDS011;9219;50.396;8.546;2023-06-14T18:58:17;3.93;;;2.20;;
18188;SDS011;9219;50.396;8.546;2023-06-14T19:04:53;4.40;;;2.30;;
18188;SDS011;9219;50.396;8.546;2023-06-14T19:07:21;3.97;;;2.27;;
18188;SDS011;9219;50.396;8.546;2023-06-14T19:09:50;2.90;;;2.47;;
18188;SDS011;9219;50.396;8.546;2023-06-14T19:12:19;4.57;;;2.57;;